sensor_id;sensor_type;location;lat;lon;timestamp;P1;durP1;ratioP1;P2;durP2;ratioP2
3217;SDS011;1621;49.702;8.618;2023-03-01T00:01:21;17.63;;;10.80;;
3217;SDS011;1621;49.702;8.618;2023-03-01T00:03:48;13.70;;;10.27;;
3217;SDS011;1621;49.702;8.618;2023-03-01T00:06:14;15.77;;;11.20;;
3217;SDS011;1621;49.702;8.618;2023-03-01T00:08:42;13.73;;;9.90;;
3217;SDS011;1621;49.702;8.618;2023-03-01T00:11:10;14.00;;;10.47;;
3217;SDS011;1621;49.702;8.618;2023-03-01T00:13:37;13.27;;;10.87;;
3217;SDS011;1621;49.702;8.618;2023-03-01T00:16:04;14.87;;;11.17;;
3217;SDS011;1621;49.702;8.618;2023-03-01T00:18:30;16.80;;;12.00;;
3217;SDS011;1621;49.702;8.618;2023-03-01T00:20:57;14.57;;;11.23;;
3217;SDS011;1621;49.702;8.618;2023-03-01T00:23:23;16.23;;;11.40;;
3217;SDS011;1621;49.702;8.618;2023-03-01T00:25:51;16.43;;;10.37;;
3217;SDS011;1621;49.702;8.618;2023-03-01T00:28:18;15.60;;;11.97;;
3217;SDS011;1621;49.702;8.618;2023-03-01T00:30:44;16.63;;;11.83;;
3217;SDS011;1621;49.702;8.618;2023-03-01T00:33:11;15.37;;;11.10;;
3217;SDS011;1621;49.702;8.618;2023-03-01T00:35:37;14.27;;;11.07;;
3217;SDS011;1621;49.702;8.618;2023-03-01T00:38:03;15.13;;;11.87;;
3217;SDS011;1621;49.702;8.618;2023-03-01T00:40:31;17.27;;;12.57;;
3217;SDS011;1621;49.702;8.618;2023-03-01T00:42:58;13.93;;;10.77;;
3217;SDS011;1621;49.702;8.618;2023-03-01T00:45:25;17.43;;;11.63;;
3217;SDS011;1621;49.702;8.618;2023-03-01T00:47:52;14.47;;;10.77;;
3217;SDS011;1621;49.702;8.618;2023-03-01T00:50:18;14.33;;;10.93;;
3217;SDS011;1621;49.702;8.618;2023-03-01T00:52:45;13.50;;;11.23;;
3217;SDS011;1621;49.702;8.618;2023-03-01T00:55:11;14.03;;;11.10;;
3217;SDS011;1621;49.702;8.618;2023-03-01T00:57:38;17.17;;;12.20;;
3217;SDS011;1621;49.702;8.618;2023-03-01T01:00:06;15.90;;;11.63;;
3217;SDS011;1621;49.702;8.618;2023-03-01T01:02:34;16.27;;;10.83;;
3217;SDS011;1621;49.702;8.618;2023-03-01T01:05:01;17.30;;;12.47;;
3217;SDS011;1621;49.702;8.618;2023-03-01T01:07:27;19.47;;;13.50;;
3217;SDS011;1621;49.702;8.618;2023-03-01T01:09:53;16.50;;;12.47;;
3217;SDS011;1621;49.702;8.618;2023-03-01T01:12:19;15.30;;;12.03;;
3217;SDS011;1621;49.702;8.618;2023-03-01T01:14:46;18.37;;;12.63;;
3217;SDS011;1621;49.702;8.618;2023-03-01T01:17:13;15.60;;;11.20;;
3217;SDS011;1621;49.702;8.618;2023-03-01T01:19:39;15.80;;;11.97;;
3217;SDS011;1621;49.702;8.618;2023-03-01T01:22:06;16.63;;;12.13;;
3217;SDS011;1621;49.702;8.618;2023-03-01T01:24:32;13.60;;;10.63;;
3217;SDS011;1621;49.702;8.618;2023-03-01T01:26:58;17.37;;;11.70;;
3217;SDS011;1621;49.702;8.618;2023-03-01T01:29:24;16.77;;;12.07;;
3217;SDS011;1621;49.702;8.618;2023-03-01T01:31:51;18.10;;;12.97;;
3217;SDS011;1621;49.702;8.618;2023-03-01T01:34:19;17.73;;;12.70;;
3217;SDS011;1621;49.702;8.618;2023-03-01T01:36:47;14.07;;;11.47;;
3217;SDS011;1621;49.702;8.618;2023-03-01T01:39:13;16.40;;;11.73;;
3217;SDS011;1621;49.702;8.618;2023-03-01T01:41:40;18.03;;;12.13;;
3217;SDS011;1621;49.702;8.618;2023-03-01T01:44:11;16.87;;;12.80;;
3217;SDS011;1621;49.702;8.618;2023-03-01T01:46:38;18.40;;;12.57;;
3217;SDS011;1621;49.702;8.618;2023-03-01T01:49:05;19.53;;;13.73;;
3217;SDS011;1621;49.702;8.618;2023-03-01T01:51:35;18.27;;;11.97;;
3217;SDS011;1621;49.702;8.618;2023-03-01T01:54:04;16.43;;;10.70;;
3217;SDS011;1621;49.702;8.618;2023-03-01T01:56:31;16.40;;;11.30;;
3217;SDS011;1621;49.702;8.618;2023-03-01T01:58:58;16.63;;;12.30;;
3217;SDS011;1621;49.702;8.618;2023-03-01T02:01:25;17.23;;;12.23;;
3217;SDS011;1621;49.702;8.618;2023-03-01T02:03:51;16.63;;;12.40;;
3217;SDS011;1621;49.702;8.618;2023-03-01T02:06:19;17.03;;;12.37;;
3217;SDS011;1621;49.702;8.618;2023-03-01T02:08:49;21.87;;;13.80;;
3217;SDS011;1621;49.702;8.618;2023-03-01T02:11:17;18.43;;;14.10;;
3217;SDS011;1621;49.702;8.618;2023-03-01T02:13:44;19.30;;;13.20;;
3217;SDS011;1621;49.702;8.618;2023-03-01T02:16:11;18.70;;;11.67;;
3217;SDS011;1621;49.702;8.618;2023-03-01T02:18:39;18.37;;;12.93;;
3217;SDS011;1621;49.702;8.618;2023-03-01T02:21:08;17.90;;;13.17;;
3217;SDS011;1621;49.702;8.618;2023-03-01T02:23:37;18.50;;;13.20;;
3217;SDS011;1621;49.702;8.618;2023-03-01T02:26:06;17.80;;;13.47;;
3217;SDS011;1621;49.702;8.618;2023-03-01T02:28:35;17.43;;;13.47;;
3217;SDS011;1621;49.702;8.618;2023-03-01T02:31:03;14.90;;;11.70;;
3217;SDS011;1621;49.702;8.618;2023-03-01T02:33:48;20.73;;;13.50;;
3217;SDS011;1621;49.702;8.618;2023-03-01T02:36:15;20.83;;;13.77;;
3217;SDS011;1621;49.702;8.618;2023-03-01T02:38:42;18.93;;;13.60;;
3217;SDS011;1621;49.702;8.618;2023-03-01T02:41:08;20.37;;;13.00;;
3217;SDS011;1621;49.702;8.618;2023-03-01T02:43:36;16.93;;;12.47;;
3217;SDS011;1621;49.702;8.618;2023-03-01T02:46:03;17.97;;;13.33;;
3217;SDS011;1621;49.702;8.618;2023-03-01T02:48:38;17.20;;;12.40;;
3217;SDS011;1621;49.702;8.618;2023-03-01T02:51:06;18.30;;;12.13;;
3217;SDS011;1621;49.702;8.618;2023-03-01T02:53:39;22.23;;;13.07;;
3217;SDS011;1621;49.702;8.618;2023-03-01T02:56:07;15.90;;;12.80;;
3217;SDS011;1621;49.702;8.618;2023-03-01T02:58:39;16.87;;;12.50;;
3217;SDS011;1621;49.702;8.618;2023-03-01T03:01:13;17.60;;;12.03;;
3217;SDS011;1621;49.702;8.618;2023-03-01T03:03:41;21.27;;;12.47;;
3217;SDS011;1621;49.702;8.618;2023-03-01T03:06:07;16.27;;;12.90;;
3217;SDS011;1621;49.702;8.618;2023-03-01T03:08:33;16.57;;;12.50;;
3217;SDS011;1621;49.702;8.618;2023-03-01T03:11:00;18.37;;;13.17;;
3217;SDS011;1621;49.702;8.618;2023-03-01T03:13:26;16.20;;;11.97;;
3217;SDS011;1621;49.702;8.618;2023-03-01T03:15:54;16.90;;;12.70;;
3217;SDS011;1621;49.702;8.618;2023-03-01T03:18:21;19.20;;;13.10;;
3217;SDS011;1621;49.702;8.618;2023-03-01T03:20:48;16.23;;;12.30;;
3217;SDS011;1621;49.702;8.618;2023-03-01T03:23:17;18.60;;;13.47;;
3217;SDS011;1621;49.702;8.618;2023-03-01T03:25:44;15.60;;;11.60;;
3217;SDS011;1621;49.702;8.618;2023-03-01T03:28:10;19.00;;;12.60;;
3217;SDS011;1621;49.702;8.618;2023-03-01T03:30:37;15.97;;;11.90;;
3217;SDS011;1621;49.702;8.618;2023-03-01T03:33:05;20.60;;;12.70;;
3217;SDS011;1621;49.702;8.618;2023-03-01T03:35:33;18.80;;;12.63;;
3217;SDS011;1621;49.702;8.618;2023-03-01T03:38:00;16.80;;;12.97;;
3217;SDS011;1621;49.702;8.618;2023-03-01T03:40:32;18.67;;;12.90;;
3217;SDS011;1621;49.702;8.618;2023-03-01T03:42:58;16.47;;;12.03;;
3217;SDS011;1621;49.702;8.618;2023-03-01T03:45:24;18.43;;;13.67;;
3217;SDS011;1621;49.702;8.618;2023-03-01T03:47:50;20.47;;;13.57;;
3217;SDS011;1621;49.702;8.618;2023-03-01T03:50:18;19.87;;;13.37;;
3217;SDS011;1621;49.702;8.618;2023-03-01T03:52:45;19.07;;;14.00;;
3217;SDS011;1621;49.702;8.618;2023-03-01T03:55:11;18.30;;;13.77;;
3217;SDS011;1621;49.702;8.618;2023-03-01T03:57:38;18.33;;;13.80;;
3217;SDS011;1621;49.702;8.618;2023-03-01T04:00:05;17.57;;;12.90;;
3217;SDS011;1621;49.702;8.618;2023-03-01T04:02:37;19.57;;;13.80;;
3217;SDS011;1621;49.702;8.618;2023-03-01T04:05:04;19.53;;;14.20;;
3217;SDS011;1621;49.702;8.618;2023-03-01T04:07:31;17.47;;;13.30;;
3217;SDS011;1621;49.702;8.618;2023-03-01T04:09:58;20.20;;;14.07;;
3217;SDS011;1621;49.702;8.618;2023-03-01T04:12:24;19.57;;;14.17;;
3217;SDS011;1621;49.702;8.618;2023-03-01T04:14:50;19.97;;;14.00;;
3217;SDS011;1621;49.702;8.618;2023-03-01T04:17:16;19.53;;;13.70;;
3217;SDS011;1621;49.702;8.618;2023-03-01T04:19:44;21.93;;;14.63;;
3217;SDS011;1621;49.702;8.618;2023-03-01T04:22:13;21.30;;;15.07;;
3217;SDS011;1621;49.702;8.618;2023-03-01T04:24:44;17.23;;;13.53;;
3217;SDS011;1621;49.702;8.618;2023-03-01T04:27:11;18.00;;;12.90;;
3217;SDS011;1621;49.702;8.618;2023-03-01T04:29:37;19.00;;;13.30;;
3217;SDS011;1621;49.702;8.618;2023-03-01T04:32:03;21.23;;;14.13;;
3217;SDS011;1621;49.702;8.618;2023-03-01T04:34:30;20.70;;;14.60;;
3217;SDS011;1621;49.702;8.618;2023-03-01T04:36:56;20.37;;;13.93;;
3217;SDS011;1621;49.702;8.618;2023-03-01T04:39:22;22.47;;;14.20;;
3217;SDS011;1621;49.702;8.618;2023-03-01T04:41:50;20.80;;;14.53;;
3217;SDS011;1621;49.702;8.618;2023-03-01T04:44:17;19.73;;;14.40;;
3217;SDS011;1621;49.702;8.618;2023-03-01T04:46:44;18.70;;;14.30;;
3217;SDS011;1621;49.702;8.618;2023-03-01T04:49:10;20.10;;;13.00;;
3217;SDS011;1621;49.702;8.618;2023-03-01T04:51:36;20.13;;;14.23;;
3217;SDS011;1621;49.702;8.618;2023-03-01T04:54:03;20.60;;;12.70;;
3217;SDS011;1621;49.702;8.618;2023-03-01T04:56:33;20.80;;;13.37;;
3217;SDS011;1621;49.702;8.618;2023-03-01T04:59:01;18.90;;;14.33;;
3217;SDS011;1621;49.702;8.618;2023-03-01T05:01:30;19.90;;;13.93;;
3217;SDS011;1621;49.702;8.618;2023-03-01T05:03:56;19.13;;;14.23;;
3217;SDS011;1621;49.702;8.618;2023-03-01T05:06:27;17.87;;;12.70;;
3217;SDS011;1621;49.702;8.618;2023-03-01T05:08:54;20.80;;;13.63;;
3217;SDS011;1621;49.702;8.618;2023-03-01T05:11:20;18.40;;;13.70;;
3217;SDS011;1621;49.702;8.618;2023-03-01T05:13:46;18.20;;;13.50;;
3217;SDS011;1621;49.702;8.618;2023-03-01T05:16:16;19.03;;;13.70;;
3217;SDS011;1621;49.702;8.618;2023-03-01T05:18:42;18.40;;;13.83;;
3217;SDS011;1621;49.702;8.618;2023-03-01T05:21:10;18.37;;;13.03;;
3217;SDS011;1621;49.702;8.618;2023-03-01T05:23:36;17.87;;;13.33;;
3217;SDS011;1621;49.702;8.618;2023-03-01T05:26:03;20.53;;;13.37;;
3217;SDS011;1621;49.702;8.618;2023-03-01T05:28:30;15.70;;;12.23;;
3217;SDS011;1621;49.702;8.618;2023-03-01T05:30:57;22.47;;;14.20;;
3217;SDS011;1621;49.702;8.618;2023-03-01T05:33:24;20.03;;;13.57;;
3217;SDS011;1621;49.702;8.618;2023-03-01T05:35:51;22.47;;;13.80;;
3217;SDS011;1621;49.702;8.618;2023-03-01T05:38:18;18.87;;;13.27;;
3217;SDS011;1621;49.702;8.618;2023-03-01T05:40:45;20.30;;;13.93;;
3217;SDS011;1621;49.702;8.618;2023-03-01T05:43:12;20.77;;;15.07;;
3217;SDS011;1621;49.702;8.618;2023-03-01T05:45:39;19.10;;;13.33;;
3217;SDS011;1621;49.702;8.618;2023-03-01T05:48:06;20.23;;;13.50;;
3217;SDS011;1621;49.702;8.618;2023-03-01T05:50:35;18.20;;;14.00;;
3217;SDS011;1621;49.702;8.618;2023-03-01T05:53:02;18.70;;;14.00;;
3217;SDS011;1621;49.702;8.618;2023-03-01T05:55:29;18.60;;;13.57;;
3217;SDS011;1621;49.702;8.618;2023-03-01T05:57:57;22.47;;;13.80;;
3217;SDS011;1621;49.702;8.618;2023-03-01T06:00:24;16.87;;;13.20;;
3217;SDS011;1621;49.702;8.618;2023-03-01T06:02:50;22.73;;;14.77;;
3217;SDS011;1621;49.702;8.618;2023-03-01T06:05:17;20.97;;;14.80;;
3217;SDS011;1621;49.702;8.618;2023-03-01T06:07:45;20.50;;;13.80;;
3217;SDS011;1621;49.702;8.618;2023-03-01T06:10:12;20.20;;;14.77;;
3217;SDS011;1621;49.702;8.618;2023-03-01T06:12:38;18.97;;;14.00;;
3217;SDS011;1621;49.702;8.618;2023-03-01T06:15:06;21.23;;;14.50;;
3217;SDS011;1621;49.702;8.618;2023-03-01T06:17:34;22.50;;;14.93;;
3217;SDS011;1621;49.702;8.618;2023-03-01T06:20:02;18.60;;;13.77;;
3217;SDS011;1621;49.702;8.618;2023-03-01T06:22:29;18.63;;;13.47;;
3217;SDS011;1621;49.702;8.618;2023-03-01T06:24:56;17.67;;;13.23;;
3217;SDS011;1621;49.702;8.618;2023-03-01T06:27:22;18.33;;;13.80;;
3217;SDS011;1621;49.702;8.618;2023-03-01T06:29:49;20.87;;;15.30;;
3217;SDS011;1621;49.702;8.618;2023-03-01T06:32:15;20.13;;;14.57;;
3217;SDS011;1621;49.702;8.618;2023-03-01T06:34:41;22.30;;;15.50;;
3217;SDS011;1621;49.702;8.618;2023-03-01T06:37:07;20.00;;;14.60;;
3217;SDS011;1621;49.702;8.618;2023-03-01T06:39:34;20.37;;;14.90;;
3217;SDS011;1621;49.702;8.618;2023-03-01T06:42:01;20.53;;;13.87;;
3217;SDS011;1621;49.702;8.618;2023-03-01T06:44:28;19.40;;;14.07;;
3217;SDS011;1621;49.702;8.618;2023-03-01T06:46:54;24.93;;;15.93;;
3217;SDS011;1621;49.702;8.618;2023-03-01T06:49:20;22.27;;;15.40;;
3217;SDS011;1621;49.702;8.618;2023-03-01T06:51:47;22.90;;;15.53;;
3217;SDS011;1621;49.702;8.618;2023-03-01T06:54:13;20.23;;;14.10;;
3217;SDS011;1621;49.702;8.618;2023-03-01T06:56:39;19.33;;;14.77;;
3217;SDS011;1621;49.702;8.618;2023-03-01T06:59:07;21.23;;;15.67;;
3217;SDS011;1621;49.702;8.618;2023-03-01T07:01:33;19.17;;;14.00;;
3217;SDS011;1621;49.702;8.618;2023-03-01T07:03:59;22.60;;;15.67;;
3217;SDS011;1621;49.702;8.618;2023-03-01T07:06:26;23.30;;;16.13;;
3217;SDS011;1621;49.702;8.618;2023-03-01T07:08:52;20.60;;;15.33;;
3217;SDS011;1621;49.702;8.618;2023-03-01T07:11:18;21.00;;;16.00;;
3217;SDS011;1621;49.702;8.618;2023-03-01T07:13:44;23.23;;;15.67;;
3217;SDS011;1621;49.702;8.618;2023-03-01T07:16:12;24.67;;;15.97;;
3217;SDS011;1621;49.702;8.618;2023-03-01T07:18:39;23.83;;;16.33;;
3217;SDS011;1621;49.702;8.618;2023-03-01T07:21:05;18.53;;;14.17;;
3217;SDS011;1621;49.702;8.618;2023-03-01T07:23:32;23.00;;;14.77;;
3217;SDS011;1621;49.702;8.618;2023-03-01T07:25:58;19.73;;;14.73;;
3217;SDS011;1621;49.702;8.618;2023-03-01T07:28:25;20.47;;;15.70;;
3217;SDS011;1621;49.702;8.618;2023-03-01T07:30:52;22.57;;;15.10;;
3217;SDS011;1621;49.702;8.618;2023-03-01T07:33:20;21.33;;;15.87;;
3217;SDS011;1621;49.702;8.618;2023-03-01T07:35:46;21.77;;;15.43;;
3217;SDS011;1621;49.702;8.618;2023-03-01T07:38:12;22.97;;;15.57;;
3217;SDS011;1621;49.702;8.618;2023-03-01T07:40:38;22.20;;;16.00;;
3217;SDS011;1621;49.702;8.618;2023-03-01T07:43:05;23.13;;;16.97;;
3217;SDS011;1621;49.702;8.618;2023-03-01T07:45:31;19.33;;;15.20;;
3217;SDS011;1621;49.702;8.618;2023-03-01T07:47:57;18.73;;;14.43;;
3217;SDS011;1621;49.702;8.618;2023-03-01T07:50:25;24.37;;;16.77;;
3217;SDS011;1621;49.702;8.618;2023-03-01T07:52:51;20.33;;;15.77;;
3217;SDS011;1621;49.702;8.618;2023-03-01T07:55:17;22.93;;;15.47;;
3217;SDS011;1621;49.702;8.618;2023-03-01T07:57:44;20.93;;;14.87;;
3217;SDS011;1621;49.702;8.618;2023-03-01T08:00:11;24.00;;;17.37;;
3217;SDS011;1621;49.702;8.618;2023-03-01T08:02:37;22.50;;;16.63;;
3217;SDS011;1621;49.702;8.618;2023-03-01T08:05:05;23.53;;;16.27;;
3217;SDS011;1621;49.702;8.618;2023-03-01T08:07:33;24.27;;;16.33;;
3217;SDS011;1621;49.702;8.618;2023-03-01T08:09:59;24.53;;;16.20;;
3217;SDS011;1621;49.702;8.618;2023-03-01T08:12:25;22.33;;;15.70;;
3217;SDS011;1621;49.702;8.618;2023-03-01T08:14:53;23.10;;;15.87;;
3217;SDS011;1621;49.702;8.618;2023-03-01T08:17:19;20.90;;;15.00;;
3217;SDS011;1621;49.702;8.618;2023-03-01T08:19:45;20.33;;;15.10;;
3217;SDS011;1621;49.702;8.618;2023-03-01T08:22:11;24.30;;;16.00;;
3217;SDS011;1621;49.702;8.618;2023-03-01T08:24:39;22.63;;;14.90;;
3217;SDS011;1621;49.702;8.618;2023-03-01T08:27:05;24.53;;;17.67;;
3217;SDS011;1621;49.702;8.618;2023-03-01T08:29:32;22.37;;;15.37;;
3217;SDS011;1621;49.702;8.618;2023-03-01T08:31:58;22.50;;;16.80;;
3217;SDS011;1621;49.702;8.618;2023-03-01T08:34:25;19.63;;;15.20;;
3217;SDS011;1621;49.702;8.618;2023-03-01T08:36:51;24.30;;;16.57;;
3217;SDS011;1621;49.702;8.618;2023-03-01T08:39:18;23.43;;;16.17;;
3217;SDS011;1621;49.702;8.618;2023-03-01T08:41:46;21.37;;;15.33;;
3217;SDS011;1621;49.702;8.618;2023-03-01T08:44:13;21.57;;;15.83;;
3217;SDS011;1621;49.702;8.618;2023-03-01T08:46:41;24.93;;;16.47;;
3217;SDS011;1621;49.702;8.618;2023-03-01T08:49:08;21.60;;;15.20;;
3217;SDS011;1621;49.702;8.618;2023-03-01T08:51:34;25.80;;;16.90;;
3217;SDS011;1621;49.702;8.618;2023-03-01T08:54:03;23.70;;;16.17;;
3217;SDS011;1621;49.702;8.618;2023-03-01T08:56:29;23.40;;;15.30;;
3217;SDS011;1621;49.702;8.618;2023-03-01T08:58:57;20.47;;;15.80;;
3217;SDS011;1621;49.702;8.618;2023-03-01T09:01:23;24.03;;;16.03;;
3217;SDS011;1621;49.702;8.618;2023-03-01T09:03:51;24.17;;;16.63;;
3217;SDS011;1621;49.702;8.618;2023-03-01T09:06:17;23.80;;;15.40;;
3217;SDS011;1621;49.702;8.618;2023-03-01T09:08:45;21.70;;;15.97;;
3217;SDS011;1621;49.702;8.618;2023-03-01T09:11:12;21.77;;;14.63;;
3217;SDS011;1621;49.702;8.618;2023-03-01T09:13:40;20.60;;;15.20;;
3217;SDS011;1621;49.702;8.618;2023-03-01T09:16:08;23.00;;;16.87;;
3217;SDS011;1621;49.702;8.618;2023-03-01T09:18:34;19.83;;;14.37;;
3217;SDS011;1621;49.702;8.618;2023-03-01T09:21:02;22.37;;;15.93;;
3217;SDS011;1621;49.702;8.618;2023-03-01T09:23:32;22.67;;;16.17;;
3217;SDS011;1621;49.702;8.618;2023-03-01T09:25:58;22.50;;;15.87;;
3217;SDS011;1621;49.702;8.618;2023-03-01T09:28:24;23.73;;;15.93;;
3217;SDS011;1621;49.702;8.618;2023-03-01T09:30:51;23.60;;;15.90;;
3217;SDS011;1621;49.702;8.618;2023-03-01T09:33:18;21.90;;;16.93;;
3217;SDS011;1621;49.702;8.618;2023-03-01T09:35:45;28.43;;;17.40;;
3217;SDS011;1621;49.702;8.618;2023-03-01T09:38:12;24.40;;;16.80;;
3217;SDS011;1621;49.702;8.618;2023-03-01T09:40:41;23.50;;;16.60;;
3217;SDS011;1621;49.702;8.618;2023-03-01T09:43:08;22.00;;;15.90;;
3217;SDS011;1621;49.702;8.618;2023-03-01T09:45:39;24.13;;;18.00;;
3217;SDS011;1621;49.702;8.618;2023-03-01T09:48:09;26.47;;;16.50;;
3217;SDS011;1621;49.702;8.618;2023-03-01T09:50:40;24.10;;;17.30;;
3217;SDS011;1621;49.702;8.618;2023-03-01T09:53:09;27.13;;;18.60;;
3217;SDS011;1621;49.702;8.618;2023-03-01T09:55:38;24.70;;;17.00;;
3217;SDS011;1621;49.702;8.618;2023-03-01T09:58:10;22.53;;;16.20;;
3217;SDS011;1621;49.702;8.618;2023-03-01T10:00:44;25.17;;;18.13;;
3217;SDS011;1621;49.702;8.618;2023-03-01T10:03:14;25.87;;;17.27;;
3217;SDS011;1621;49.702;8.618;2023-03-01T10:05:46;34.13;;;18.30;;
3217;SDS011;1621;49.702;8.618;2023-03-01T10:08:23;26.37;;;17.73;;
3217;SDS011;1621;49.702;8.618;2023-03-01T10:10:50;22.37;;;16.90;;
3217;SDS011;1621;49.702;8.618;2023-03-01T10:13:18;23.60;;;17.40;;
3217;SDS011;1621;49.702;8.618;2023-03-01T10:15:47;25.70;;;17.47;;
3217;SDS011;1621;49.702;8.618;2023-03-01T10:18:21;21.30;;;16.30;;
3217;SDS011;1621;49.702;8.618;2023-03-01T10:20:50;21.53;;;17.33;;
3217;SDS011;1621;49.702;8.618;2023-03-01T10:23:18;22.97;;;17.53;;
3217;SDS011;1621;49.702;8.618;2023-03-01T10:25:47;18.97;;;15.93;;
3217;SDS011;1621;49.702;8.618;2023-03-01T10:28:17;22.10;;;16.80;;
3217;SDS011;1621;49.702;8.618;2023-03-01T10:30:43;21.60;;;16.27;;
3217;SDS011;1621;49.702;8.618;2023-03-01T10:33:13;21.03;;;16.83;;
3217;SDS011;1621;49.702;8.618;2023-03-01T10:35:41;22.50;;;16.90;;
3217;SDS011;1621;49.702;8.618;2023-03-01T10:38:10;22.50;;;17.13;;
3217;SDS011;1621;49.702;8.618;2023-03-01T10:40:49;22.77;;;16.77;;
3217;SDS011;1621;49.702;8.618;2023-03-01T10:43:15;20.03;;;16.27;;
3217;SDS011;1621;49.702;8.618;2023-03-01T10:45:41;24.93;;;17.13;;
3217;SDS011;1621;49.702;8.618;2023-03-01T10:48:11;23.93;;;18.10;;
3217;SDS011;1621;49.702;8.618;2023-03-01T10:50:38;19.50;;;15.60;;
3217;SDS011;1621;49.702;8.618;2023-03-01T10:53:15;22.10;;;15.80;;
3217;SDS011;1621;49.702;8.618;2023-03-01T10:55:46;19.00;;;15.87;;
3217;SDS011;1621;49.702;8.618;2023-03-01T10:58:16;24.63;;;17.27;;
3217;SDS011;1621;49.702;8.618;2023-03-01T11:00:48;22.37;;;15.73;;
3217;SDS011;1621;49.702;8.618;2023-03-01T11:03:16;18.97;;;15.23;;
3217;SDS011;1621;49.702;8.618;2023-03-01T11:11:18;20.47;;;15.20;;
3217;SDS011;1621;49.702;8.618;2023-03-01T11:13:47;22.33;;;17.23;;
3217;SDS011;1621;49.702;8.618;2023-03-01T11:16:15;18.90;;;15.00;;
3217;SDS011;1621;49.702;8.618;2023-03-01T11:18:55;17.60;;;14.20;;
3217;SDS011;1621;49.702;8.618;2023-03-01T11:21:21;19.40;;;15.87;;
3217;SDS011;1621;49.702;8.618;2023-03-01T11:23:48;20.13;;;15.03;;
3217;SDS011;1621;49.702;8.618;2023-03-01T11:26:14;21.83;;;15.57;;
3217;SDS011;1621;49.702;8.618;2023-03-01T11:28:42;22.70;;;15.20;;
3217;SDS011;1621;49.702;8.618;2023-03-01T11:31:10;21.10;;;15.70;;
3217;SDS011;1621;49.702;8.618;2023-03-01T11:33:39;19.60;;;15.57;;
3217;SDS011;1621;49.702;8.618;2023-03-01T11:36:08;22.13;;;15.80;;
3217;SDS011;1621;49.702;8.618;2023-03-01T11:38:36;20.30;;;15.67;;
3217;SDS011;1621;49.702;8.618;2023-03-01T11:41:06;17.57;;;14.30;;
3217;SDS011;1621;49.702;8.618;2023-03-01T11:43:33;18.50;;;15.23;;
3217;SDS011;1621;49.702;8.618;2023-03-01T11:48:46;21.30;;;15.10;;
3217;SDS011;1621;49.702;8.618;2023-03-01T11:51:18;19.90;;;14.97;;
3217;SDS011;1621;49.702;8.618;2023-03-01T11:53:50;18.60;;;14.50;;
3217;SDS011;1621;49.702;8.618;2023-03-01T11:56:22;18.77;;;14.30;;
3217;SDS011;1621;49.702;8.618;2023-03-01T11:59:03;18.07;;;15.23;;
3217;SDS011;1621;49.702;8.618;2023-03-01T12:01:42;21.13;;;14.70;;
3217;SDS011;1621;49.702;8.618;2023-03-01T12:06:59;19.27;;;14.20;;
3217;SDS011;1621;49.702;8.618;2023-03-01T12:09:38;17.57;;;14.47;;
3217;SDS011;1621;49.702;8.618;2023-03-01T12:12:09;20.13;;;15.77;;
3217;SDS011;1621;49.702;8.618;2023-03-01T12:14:42;19.50;;;14.20;;
3217;SDS011;1621;49.702;8.618;2023-03-01T12:17:16;25.93;;;15.10;;
3217;SDS011;1621;49.702;8.618;2023-03-01T12:19:51;21.63;;;15.30;;
3217;SDS011;1621;49.702;8.618;2023-03-01T12:22:23;21.70;;;15.63;;
3217;SDS011;1621;49.702;8.618;2023-03-01T12:25:04;19.60;;;14.67;;
3217;SDS011;1621;49.702;8.618;2023-03-01T12:27:41;16.80;;;13.13;;
3217;SDS011;1621;49.702;8.618;2023-03-01T12:30:17;17.97;;;15.40;;
3217;SDS011;1621;49.702;8.618;2023-03-01T12:32:49;21.67;;;15.63;;
3217;SDS011;1621;49.702;8.618;2023-03-01T12:35:26;22.03;;;15.80;;
3217;SDS011;1621;49.702;8.618;2023-03-01T12:37:58;16.63;;;13.10;;
3217;SDS011;1621;49.702;8.618;2023-03-01T12:40:41;17.77;;;13.60;;
3217;SDS011;1621;49.702;8.618;2023-03-01T12:43:16;17.57;;;14.77;;
3217;SDS011;1621;49.702;8.618;2023-03-01T12:45:48;17.83;;;13.70;;
3217;SDS011;1621;49.702;8.618;2023-03-01T12:48:22;17.80;;;14.07;;
3217;SDS011;1621;49.702;8.618;2023-03-01T12:50:51;20.50;;;14.00;;
3217;SDS011;1621;49.702;8.618;2023-03-01T12:53:22;19.00;;;14.07;;
3217;SDS011;1621;49.702;8.618;2023-03-01T12:55:49;18.50;;;13.70;;
3217;SDS011;1621;49.702;8.618;2023-03-01T12:58:19;20.47;;;14.57;;
3217;SDS011;1621;49.702;8.618;2023-03-01T13:00:51;18.93;;;14.20;;
3217;SDS011;1621;49.702;8.618;2023-03-01T13:03:23;17.60;;;13.20;;
3217;SDS011;1621;49.702;8.618;2023-03-01T13:05:56;18.03;;;13.07;;
3217;SDS011;1621;49.702;8.618;2023-03-01T13:08:29;15.90;;;12.57;;
3217;SDS011;1621;49.702;8.618;2023-03-01T13:10:58;16.40;;;12.93;;
3217;SDS011;1621;49.702;8.618;2023-03-01T13:13:26;17.63;;;12.63;;
3217;SDS011;1621;49.702;8.618;2023-03-01T13:15:53;16.67;;;13.20;;
3217;SDS011;1621;49.702;8.618;2023-03-01T13:18:29;18.17;;;13.27;;
3217;SDS011;1621;49.702;8.618;2023-03-01T13:20:57;18.83;;;14.40;;
3217;SDS011;1621;49.702;8.618;2023-03-01T13:23:24;15.93;;;12.07;;
3217;SDS011;1621;49.702;8.618;2023-03-01T13:26:06;18.00;;;13.03;;
3217;SDS011;1621;49.702;8.618;2023-03-01T13:28:38;15.30;;;12.37;;
3217;SDS011;1621;49.702;8.618;2023-03-01T13:31:06;14.17;;;11.57;;
3217;SDS011;1621;49.702;8.618;2023-03-01T13:33:33;14.13;;;10.93;;
3217;SDS011;1621;49.702;8.618;2023-03-01T13:36:05;16.70;;;10.50;;
3217;SDS011;1621;49.702;8.618;2023-03-01T13:38:37;17.03;;;11.13;;
3217;SDS011;1621;49.702;8.618;2023-03-01T13:41:03;15.23;;;10.87;;
3217;SDS011;1621;49.702;8.618;2023-03-01T13:43:32;14.03;;;11.10;;
3217;SDS011;1621;49.702;8.618;2023-03-01T13:45:59;14.70;;;10.33;;
3217;SDS011;1621;49.702;8.618;2023-03-01T13:48:26;13.20;;;9.50;;
3217;SDS011;1621;49.702;8.618;2023-03-01T13:50:54;13.33;;;10.03;;
3217;SDS011;1621;49.702;8.618;2023-03-01T13:53:24;13.80;;;10.97;;
3217;SDS011;1621;49.702;8.618;2023-03-01T13:55:51;12.27;;;9.40;;
3217;SDS011;1621;49.702;8.618;2023-03-01T13:58:21;13.37;;;10.00;;
3217;SDS011;1621;49.702;8.618;2023-03-01T14:00:54;12.53;;;9.43;;
3217;SDS011;1621;49.702;8.618;2023-03-01T14:03:20;10.17;;;8.33;;
3217;SDS011;1621;49.702;8.618;2023-03-01T14:05:57;10.97;;;8.50;;
3217;SDS011;1621;49.702;8.618;2023-03-01T14:08:25;11.90;;;8.57;;
3217;SDS011;1621;49.702;8.618;2023-03-01T14:10:58;14.37;;;8.83;;
3217;SDS011;1621;49.702;8.618;2023-03-01T14:13:30;13.63;;;8.00;;
3217;SDS011;1621;49.702;8.618;2023-03-01T14:16:04;11.53;;;9.20;;
3217;SDS011;1621;49.702;8.618;2023-03-01T14:18:36;13.17;;;9.30;;
3217;SDS011;1621;49.702;8.618;2023-03-01T14:21:07;13.30;;;8.93;;
3217;SDS011;1621;49.702;8.618;2023-03-01T14:23:33;12.33;;;8.50;;
3217;SDS011;1621;49.702;8.618;2023-03-01T14:26:00;11.60;;;8.87;;
3217;SDS011;1621;49.702;8.618;2023-03-01T14:28:27;11.60;;;8.70;;
3217;SDS011;1621;49.702;8.618;2023-03-01T14:30:54;13.13;;;8.57;;
3217;SDS011;1621;49.702;8.618;2023-03-01T14:33:24;11.53;;;8.60;;
3217;SDS011;1621;49.702;8.618;2023-03-01T14:35:55;11.83;;;7.80;;
3217;SDS011;1621;49.702;8.618;2023-03-01T14:38:22;12.10;;;7.63;;
3217;SDS011;1621;49.702;8.618;2023-03-01T14:40:49;10.90;;;8.87;;
3217;SDS011;1621;49.702;8.618;2023-03-01T14:43:18;10.67;;;8.23;;
3217;SDS011;1621;49.702;8.618;2023-03-01T14:45:47;9.47;;;7.53;;
3217;SDS011;1621;49.702;8.618;2023-03-01T14:48:14;12.10;;;8.67;;
3217;SDS011;1621;49.702;8.618;2023-03-01T14:50:42;9.90;;;7.63;;
3217;SDS011;1621;49.702;8.618;2023-03-01T14:53:14;11.03;;;7.70;;
3217;SDS011;1621;49.702;8.618;2023-03-01T14:55:41;10.97;;;7.80;;
3217;SDS011;1621;49.702;8.618;2023-03-01T14:58:09;10.10;;;8.20;;
3217;SDS011;1621;49.702;8.618;2023-03-01T15:00:37;10.30;;;7.77;;
3217;SDS011;1621;49.702;8.618;2023-03-01T15:03:06;12.77;;;8.60;;
3217;SDS011;1621;49.702;8.618;2023-03-01T15:05:34;14.60;;;8.50;;